Time;durP1;ratioP1;P1;durP2;ratioP2;P2;SDS_P1;SDS_P2;PMS_P1;PMS_P2;Temp;Humidity;BMP_temperature;BMP_pressure;BME280_temperature;BME280_humidity;BME280_pressure;Samples;Min_cycle;Max_cycle;Signal;HPM_P1;HPM_P2
2024/01/30 00:00:08;;;;;;;34.75;31.88;;;6.70;99.90;;;;;;4879376;29;20109;-82
2024/01/30 00:02:34;;;;;;;33.75;31.23;;;6.70;99.90;;;;;;4881972;29;20059;-83
2024/01/30 00:05:01;;;;;;;33.40;31.10;;;6.60;99.90;;;;;;4913330;29;20051;-83
2024/01/30 00:07:28;;;;;;;33.80;31.23;;;6.50;99.90;;;;;;4898859;29;20033;-83
2024/01/30 00:09:54;;;;;;;34.05;31.55;;;6.40;99.90;;;;;;4913532;29;20036;-83
2024/01/30 00:12:20;;;;;;;34.05;31.38;;;6.40;99.90;;;;;;4898813;29;20147;-83
2024/01/30 00:14:47;;;;;;;34.80;31.70;;;6.40;99.90;;;;;;4912983;29;20513;-83
2024/01/30 00:17:13;;;;;;;34.00;31.50;;;6.30;99.90;;;;;;4912901;29;20435;-82
2024/01/30 00:19:42;;;;;;;33.90;31.23;;;6.30;99.90;;;;;;4913247;29;20399;-83
2024/01/30 00:22:08;;;;;;;34.03;31.27;;;6.30;99.90;;;;;;4898650;29;20028;-83
2024/01/30 00:24:35;;;;;;;33.40;31.00;;;6.20;99.90;;;;;;4913073;29;20047;-83
2024/01/30 00:27:01;;;;;;;33.97;31.05;;;6.10;99.90;;;;;;4912989;29;20695;-83
2024/01/30 00:29:30;;;;;;;33.55;31.25;;;6.10;99.90;;;;;;4897571;29;20123;-83
2024/01/30 00:31:57;;;;;;;33.72;31.25;;;6.10;99.90;;;;;;4912975;29;20028;-83
2024/01/30 00:34:23;;;;;;;33.55;31.17;;;6.00;99.90;;;;;;4913125;29;20478;-83
2024/01/30 00:36:49;;;;;;;33.28;30.77;;;6.00;99.90;;;;;;4882258;29;20179;-83
2024/01/30 00:39:16;;;;;;;33.25;30.92;;;6.00;99.90;;;;;;4863167;29;20475;-83
2024/01/30 00:41:45;;;;;;;32.28;30.05;;;5.90;99.90;;;;;;4879680;29;20033;-83
2024/01/30 00:44:11;;;;;;;32.80;30.58;;;5.90;99.90;;;;;;4878029;29;20077;-83
2024/01/30 00:46:38;;;;;;;33.75;31.25;;;5.90;99.90;;;;;;4898445;29;20025;-83
2024/01/30 00:49:04;;;;;;;32.60;30.15;;;5.90;99.90;;;;;;4913190;29;20033;-81
2024/01/30 00:51:30;;;;;;;33.22;30.90;;;5.90;99.90;;;;;;4912771;29;20509;-83
2024/01/30 00:53:56;;;;;;;33.67;31.38;;;5.90;99.90;;;;;;4913104;29;20063;-83
2024/01/30 00:56:24;;;;;;;33.92;31.40;;;5.80;99.90;;;;;;4912863;29;20538;-83
2024/01/30 00:58:50;;;;;;;33.25;30.95;;;5.80;99.90;;;;;;4881733;29;20029;-83
2024/01/30 01:01:16;;;;;;;33.70;31.40;;;5.70;99.90;;;;;;4912822;29;20512;-83
2024/01/30 01:03:43;;;;;;;33.15;30.88;;;5.70;99.90;;;;;;4912708;29;20430;-82
2024/01/30 01:06:10;;;;;;;33.40;31.00;;;5.60;99.90;;;;;;4912681;29;20037;-82
2024/01/30 01:08:36;;;;;;;33.65;31.10;;;5.60;99.90;;;;;;4912901;29;20044;-83
2024/01/30 01:11:03;;;;;;;32.70;30.13;;;5.50;99.90;;;;;;4898291;29;20033;-83
2024/01/30 01:13:29;;;;;;;32.55;30.17;;;5.50;99.90;;;;;;4915118;29;20024;-83
2024/01/30 01:15:55;;;;;;;33.17;30.70;;;5.40;99.90;;;;;;4916482;29;20041;-82
2024/01/30 01:18:22;;;;;;;32.33;30.10;;;5.50;99.90;;;;;;4916541;29;20024;-82
2024/01/30 01:20:48;;;;;;;32.38;29.75;;;5.50;99.90;;;;;;4916558;29;20033;-83
2024/01/30 01:23:14;;;;;;;32.03;29.95;;;5.40;99.90;;;;;;4916263;29;20104;-83
2024/01/30 01:25:41;;;;;;;32.58;30.35;;;5.50;99.90;;;;;;4916211;29;20040;-83
2024/01/30 01:28:07;;;;;;;32.05;29.83;;;5.50;99.90;;;;;;4901766;29;20072;-83
2024/01/30 01:30:33;;;;;;;33.13;30.45;;;5.50;99.90;;;;;;4916265;29;20040;-83
2024/01/30 01:33:02;;;;;;;33.10;30.67;;;5.50;99.90;;;;;;4916171;29;20115;-83
2024/01/30 01:35:28;;;;;;;32.47;30.10;;;5.40;99.90;;;;;;4916179;29;20051;-83
2024/01/30 01:37:55;;;;;;;32.70;30.27;;;5.40;99.90;;;;;;4916221;29;20462;-82
2024/01/30 01:40:26;;;;;;;32.30;30.00;;;5.40;99.90;;;;;;4901674;29;20513;-83
2024/01/30 01:42:54;;;;;;;32.47;30.27;;;5.30;99.90;;;;;;4900239;29;20517;-83
2024/01/30 01:45:21;;;;;;;32.65;30.15;;;5.40;99.90;;;;;;4915823;29;20037;-82
2024/01/30 01:47:52;;;;;;;32.40;30.25;;;5.40;99.90;;;;;;4900124;29;20028;-83
2024/01/30 01:50:20;;;;;;;33.35;30.80;;;5.40;99.90;;;;;;4900232;29;20034;-83
2024/01/30 01:52:48;;;;;;;34.08;31.52;;;5.50;99.90;;;;;;4915936;29;20027;-82
2024/01/30 01:55:25;;;;;;;33.83;31.02;;;5.60;99.90;;;;;;4900138;29;20036;-83
2024/01/30 01:57:53;;;;;;;33.17;30.75;;;5.60;99.90;;;;;;4900243;29;20115;-83
2024/01/30 02:00:20;;;;;;;33.28;30.58;;;5.60;99.90;;;;;;4915858;29;20088;-82
2024/01/30 02:02:47;;;;;;;32.88;30.50;;;5.70;99.90;;;;;;4900132;29;20120;-83
2024/01/30 02:05:14;;;;;;;33.75;31.30;;;5.90;99.90;;;;;;4915636;29;20045;-83
2024/01/30 02:07:44;;;;;;;33.53;31.13;;;6.00;99.90;;;;;;4899941;29;20077;-83
2024/01/30 02:10:13;;;;;;;32.80;30.58;;;6.00;99.90;;;;;;4899863;29;20479;-82
2024/01/30 02:12:40;;;;;;;33.67;31.17;;;6.00;99.90;;;;;;4915510;29;20390;-83
2024/01/30 02:15:07;;;;;;;32.55;30.45;;;5.90;99.90;;;;;;4915491;29;20039;-83
2024/01/30 02:17:34;;;;;;;33.40;30.80;;;5.90;99.90;;;;;;4915511;29;20032;-82
2024/01/30 02:20:00;;;;;;;32.55;30.30;;;5.90;99.90;;;;;;4915397;29;20035;-83
2024/01/30 02:22:30;;;;;;;33.08;30.98;;;5.90;99.90;;;;;;4915458;29;20028;-83
2024/01/30 02:24:56;;;;;;;33.92;31.38;;;5.90;99.90;;;;;;4914449;29;20060;-83
2024/01/30 02:27:22;;;;;;;33.78;31.27;;;5.80;99.90;;;;;;4899551;29;20112;-83
2024/01/30 02:29:49;;;;;;;32.63;30.23;;;5.80;99.90;;;;;;4915098;29;20043;-83
2024/01/30 02:32:15;;;;;;;33.40;30.80;;;5.70;99.90;;;;;;4900633;29;20031;-81
2024/01/30 02:34:41;;;;;;;33.13;30.92;;;5.70;99.90;;;;;;4883709;29;20040;-83
2024/01/30 02:37:08;;;;;;;33.28;30.88;;;5.60;99.90;;;;;;4896271;29;20056;-82
2024/01/30 02:39:34;;;;;;;33.10;30.80;;;5.60;99.90;;;;;;4896437;29;20037;-82
2024/01/30 02:42:00;;;;;;;32.85;30.58;;;5.60;99.90;;;;;;4896211;29;20029;-82
2024/01/30 02:44:26;;;;;;;32.17;29.75;;;5.50;99.90;;;;;;4880371;29;20036;-82
2024/01/30 02:47:02;;;;;;;32.15;29.92;;;5.50;99.90;;;;;;4880520;29;20395;-82
2024/01/30 02:49:28;;;;;;;33.30;30.98;;;5.50;99.90;;;;;;4896088;29;20029;-83
2024/01/30 02:51:56;;;;;;;33.50;30.90;;;5.40;99.90;;;;;;4880439;29;20033;-82
2024/01/30 02:54:22;;;;;;;32.80;30.45;;;5.40;99.90;;;;;;4895982;29;20029;-83
2024/01/30 02:56:49;;;;;;;33.88;31.38;;;5.40;99.90;;;;;;4880088;29;20040;-82
2024/01/30 02:59:15;;;;;;;32.17;29.88;;;5.30;99.90;;;;;;4881611;29;20033;-82
2024/01/30 03:01:47;;;;;;;32.28;30.13;;;5.30;99.90;;;;;;4880278;29;20146;-83
2024/01/30 03:04:14;;;;;;;33.15;30.75;;;5.30;99.90;;;;;;4881407;29;20065;-82
2024/01/30 03:06:47;;;;;;;32.35;30.17;;;5.30;99.90;;;;;;4895798;29;20025;-83
2024/01/30 03:09:13;;;;;;;32.58;30.27;;;5.30;99.90;;;;;;4895875;29;20032;-83
2024/01/30 03:11:39;;;;;;;32.70;30.25;;;5.20;99.90;;;;;;4895522;29;20033;-83
2024/01/30 03:14:05;;;;;;;33.55;31.02;;;5.10;99.90;;;;;;4881089;29;20036;-84
2024/01/30 03:16:32;;;;;;;33.97;31.40;;;5.10;99.90;;;;;;4895446;29;20116;-82
2024/01/30 03:18:58;;;;;;;32.20;29.98;;;5.10;99.90;;;;;;4879790;29;20040;-82
2024/01/30 03:21:24;;;;;;;32.55;30.40;;;5.10;99.90;;;;;;4895408;29;20060;-82
2024/01/30 03:23:51;;;;;;;32.92;30.45;;;5.00;99.90;;;;;;4886652;29;20037;-83
2024/01/30 03:26:17;;;;;;;32.47;30.08;;;5.00;99.90;;;;;;4864353;29;20067;-82
2024/01/30 03:28:43;;;;;;;32.10;29.90;;;4.90;99.90;;;;;;4879542;29;20052;-82
2024/01/30 03:31:09;;;;;;;31.80;29.33;;;4.80;99.90;;;;;;4878402;29;20033;-82
2024/01/30 03:33:37;;;;;;;31.45;29.25;;;4.80;99.90;;;;;;4879371;29;20051;-81
2024/01/30 03:36:04;;;;;;;31.42;29.35;;;4.80;99.90;;;;;;4863749;29;20029;-82
2024/01/30 03:38:32;;;;;;;31.35;29.25;;;4.90;99.90;;;;;;4879361;29;20024;-82
2024/01/30 03:40:59;;;;;;;31.27;29.08;;;4.90;99.90;;;;;;4863817;29;20131;-83
2024/01/30 03:43:25;;;;;;;31.63;29.10;;;4.90;99.90;;;;;;4879511;29;20037;-82
2024/01/30 03:45:52;;;;;;;30.98;28.50;;;4.90;99.90;;;;;;4879956;29;20037;-82
2024/01/30 03:48:19;;;;;;;31.30;29.08;;;4.90;99.90;;;;;;4880294;29;20099;-82
2024/01/30 03:50:45;;;;;;;31.38;29.30;;;4.90;99.90;;;;;;4863603;29;20033;-82
2024/01/30 03:53:11;;;;;;;32.45;30.05;;;5.00;99.90;;;;;;4879193;29;20041;-81
2024/01/30 03:55:37;;;;;;;31.83;29.83;;;5.00;99.90;;;;;;4863348;29;20029;-82
2024/01/30 03:58:03;;;;;;;32.20;29.95;;;5.20;99.90;;;;;;4863578;29;20037;-82
2024/01/30 04:00:29;;;;;;;32.15;30.05;;;5.20;99.90;;;;;;4878551;29;20029;-82
2024/01/30 04:02:56;;;;;;;32.72;30.52;;;5.30;99.90;;;;;;4881399;29;20029;-79
2024/01/30 04:05:22;;;;;;;32.97;30.77;;;5.40;99.90;;;;;;4912250;29;20044;-79
2024/01/30 04:07:48;;;;;;;33.63;31.23;;;5.50;99.90;;;;;;4912811;29;20044;-80
2024/01/30 04:10:14;;;;;;;34.10;31.70;;;5.60;99.90;;;;;;4897095;29;20032;-81
2024/01/30 04:12:40;;;;;;;34.13;31.75;;;5.60;99.90;;;;;;4898026;29;20039;-78
2024/01/30 04:15:07;;;;;;;34.50;32.20;;;5.70;99.90;;;;;;4898122;29;20020;-80
2024/01/30 04:17:34;;;;;;;34.03;31.83;;;5.70;99.90;;;;;;4897954;29;20025;-79
2024/01/30 04:20:00;;;;;;;34.95;32.42;;;5.80;99.90;;;;;;4897940;29;20033;-80
2024/01/30 04:22:26;;;;;;;34.30;31.70;;;5.70;99.90;;;;;;4896522;29;20060;-81
2024/01/30 04:24:52;;;;;;;34.60;32.40;;;5.70;99.90;;;;;;4912167;29;20116;-82
2024/01/30 04:27:19;;;;;;;34.50;32.30;;;5.80;99.90;;;;;;4898374;29;20040;-83
2024/01/30 04:29:45;;;;;;;34.53;31.90;;;5.80;99.90;;;;;;4913044;29;20487;-82
2024/01/30 04:32:11;;;;;;;33.90;31.75;;;5.70;99.90;;;;;;4903389;29;20056;-82
2024/01/30 04:34:37;;;;;;;33.97;31.77;;;5.50;99.90;;;;;;4877805;29;20028;-83
2024/01/30 04:37:03;;;;;;;33.65;31.23;;;5.50;99.90;;;;;;4912279;29;20652;-83
2024/01/30 04:39:30;;;;;;;33.80;31.48;;;5.40;99.90;;;;;;4896639;29;20032;-80
2024/01/30 04:41:56;;;;;;;34.30;31.88;;;5.60;99.90;;;;;;4912328;29;20521;-80
2024/01/30 04:44:22;;;;;;;33.65;31.42;;;5.60;99.90;;;;;;4911897;29;20032;-81
2024/01/30 04:46:49;;;;;;;32.97;30.95;;;5.40;99.90;;;;;;4897462;29;20116;-81
2024/01/30 04:49:15;;;;;;;32.92;30.92;;;5.50;99.90;;;;;;4912131;29;20096;-80
2024/01/30 04:51:41;;;;;;;32.90;30.73;;;5.50;99.90;;;;;;4897953;29;20036;-81
2024/01/30 04:54:07;;;;;;;32.95;30.85;;;5.40;99.90;;;;;;4912066;29;20394;-81
2024/01/30 04:56:35;;;;;;;33.60;31.02;;;5.30;99.90;;;;;;4912120;29;20406;-81
2024/01/30 04:59:02;;;;;;;34.22;32.10;;;5.30;99.90;;;;;;4912229;29;20080;-83
2024/01/30 05:01:29;;;;;;;34.22;32.03;;;5.40;99.90;;;;;;4897787;29;20021;-82
2024/01/30 05:03:55;;;;;;;33.92;31.70;;;5.60;99.90;;;;;;4897341;29;21955;-82
2024/01/30 05:06:26;;;;;;;35.08;32.78;;;5.80;99.90;;;;;;4912394;29;20040;-82
2024/01/30 05:08:52;;;;;;;34.88;32.75;;;6.10;99.90;;;;;;4897647;29;20044;-81
2024/01/30 05:11:18;;;;;;;35.72;33.22;;;6.30;99.90;;;;;;4897744;29;20029;-83
2024/01/30 05:13:45;;;;;;;35.58;33.10;;;6.40;99.90;;;;;;4912018;29;20028;-82
2024/01/30 05:16:11;;;;;;;35.80;33.60;;;6.40;99.90;;;;;;4912742;29;20036;-82
2024/01/30 05:18:37;;;;;;;35.83;33.50;;;6.40;99.90;;;;;;4896880;29;20063;-83
2024/01/30 05:21:05;;;;;;;35.95;33.47;;;6.50;99.90;;;;;;4912662;29;20044;-82
2024/01/30 05:23:31;;;;;;;35.80;33.70;;;6.40;99.90;;;;;;4912517;29;20032;-81
2024/01/30 05:26:00;;;;;;;35.88;33.63;;;6.30;99.90;;;;;;4896734;29;20040;-81
2024/01/30 05:28:27;;;;;;;35.88;33.67;;;6.30;99.90;;;;;;4897459;29;20040;-80
2024/01/30 05:30:53;;;;;;;35.67;33.30;;;6.30;99.90;;;;;;4897683;29;20028;-80
2024/01/30 05:33:19;;;;;;;36.80;34.50;;;6.20;99.90;;;;;;4897463;29;20031;-80
2024/01/30 05:35:46;;;;;;;36.03;33.65;;;6.20;99.90;;;;;;4896997;29;20020;-80
2024/01/30 05:38:12;;;;;;;36.83;34.30;;;6.20;99.90;;;;;;4897499;29;20033;-79
2024/01/30 05:40:38;;;;;;;36.22;33.75;;;6.10;99.90;;;;;;4899161;29;20155;-80
2024/01/30 05:43:05;;;;;;;36.70;34.28;;;6.00;99.90;;;;;;4911840;29;20040;-80
2024/01/30 05:45:31;;;;;;;36.75;34.28;;;5.90;99.90;;;;;;4911412;29;20042;-83
2024/01/30 05:47:57;;;;;;;36.67;34.28;;;5.90;99.90;;;;;;4911751;29;20033;-81
2024/01/30 05:50:26;;;;;;;35.25;33.00;;;6.00;99.90;;;;;;4897214;29;20037;-80
2024/01/30 05:52:53;;;;;;;36.78;34.08;;;5.90;99.90;;;;;;4911299;29;20036;-80
2024/01/30 05:55:19;;;;;;;36.53;33.95;;;5.90;99.90;;;;;;4911885;29;20084;-80
2024/01/30 05:57:45;;;;;;;35.75;33.55;;;5.80;99.90;;;;;;4897288;29;20419;-80
2024/01/30 06:00:12;;;;;;;37.00;34.33;;;5.80;99.90;;;;;;4913162;29;20478;-80
2024/01/30 06:02:39;;;;;;;37.17;34.78;;;5.80;99.90;;;;;;4915364;29;20032;-80
2024/01/30 06:05:05;;;;;;;36.88;34.25;;;5.80;99.90;;;;;;4914855;29;20037;-83
2024/01/30 06:07:35;;;;;;;36.50;34.10;;;5.80;99.90;;;;;;4914799;29;20056;-80
2024/01/30 06:10:01;;;;;;;36.58;33.75;;;5.80;99.90;;;;;;4900080;29;20494;-79
2024/01/30 06:12:28;;;;;;;36.80;34.50;;;6.00;99.90;;;;;;4900533;29;20032;-79
2024/01/30 06:14:56;;;;;;;36.38;33.90;;;6.10;99.90;;;;;;4900233;29;20039;-80
2024/01/30 06:17:26;;;;;;;35.92;33.70;;;6.20;99.90;;;;;;4916295;29;20029;-78
2024/01/30 06:19:52;;;;;;;35.80;33.50;;;6.30;99.90;;;;;;4921464;29;20071;-80
2024/01/30 06:22:18;;;;;;;36.95;34.53;;;6.30;99.90;;;;;;4914983;29;20665;-80
2024/01/30 06:24:45;;;;;;;36.20;33.80;;;6.30;99.90;;;;;;4900291;29;20032;-81
2024/01/30 06:27:11;;;;;;;36.40;34.10;;;6.30;99.90;;;;;;4914666;29;20486;-80
2024/01/30 06:29:37;;;;;;;37.28;34.67;;;6.20;99.90;;;;;;4900205;29;20025;-80
2024/01/30 06:32:04;;;;;;;37.05;34.75;;;6.20;99.90;;;;;;4898461;29;20033;-80
2024/01/30 06:34:30;;;;;;;37.38;34.97;;;6.30;99.90;;;;;;4900010;29;20024;-79
2024/01/30 06:36:57;;;;;;;37.20;34.88;;;6.30;99.90;;;;;;4914123;29;20476;-80
2024/01/30 06:39:23;;;;;;;38.50;35.88;;;6.30;99.90;;;;;;4883859;29;20387;-80
2024/01/30 06:41:49;;;;;;;37.70;34.60;;;6.40;99.90;;;;;;4883729;29;20371;-79
2024/01/30 06:44:15;;;;;;;36.88;34.58;;;6.40;99.90;;;;;;4899505;29;20025;-80
2024/01/30 06:46:42;;;;;;;38.35;35.58;;;6.70;99.90;;;;;;4899627;29;20044;-80
2024/01/30 06:49:09;;;;;;;37.78;35.38;;;6.90;99.90;;;;;;4882823;29;20033;-80
2024/01/30 06:51:35;;;;;;;38.45;35.63;;;7.20;99.90;;;;;;4896646;29;20041;-80
2024/01/30 06:54:01;;;;;;;38.95;36.55;;;7.40;99.90;;;;;;4898750;29;20440;-79
2024/01/30 06:56:28;;;;;;;38.88;36.03;;;7.70;99.90;;;;;;4882009;29;20033;-80
2024/01/30 06:58:55;;;;;;;39.20;36.63;;;7.90;99.90;;;;;;4881819;29;20036;-80
2024/01/30 07:01:29;;;;;;;39.92;37.28;;;8.10;99.90;;;;;;4871758;29;20056;-79
2024/01/30 07:03:56;;;;;;;40.08;37.38;;;8.20;99.90;;;;;;4893696;29;20032;-80
2024/01/30 07:06:22;;;;;;;39.55;36.95;;;8.50;99.90;;;;;;4880007;29;20375;-80
2024/01/30 07:08:52;;;;;;;39.50;36.90;;;8.70;99.90;;;;;;4878699;29;20025;-80
2024/01/30 07:11:22;;;;;;;40.20;37.78;;;8.80;99.90;;;;;;4861782;29;20521;-80
2024/01/30 07:13:50;;;;;;;40.33;37.67;;;9.10;99.90;;;;;;4893898;29;20494;-80
2024/01/30 07:16:16;;;;;;;40.25;37.65;;;9.20;99.90;;;;;;4875930;29;20052;-79
2024/01/30 07:18:43;;;;;;;40.92;38.03;;;9.30;99.90;;;;;;4864085;29;20085;-79
2024/01/30 07:21:10;;;;;;;40.72;38.03;;;9.40;99.90;;;;;;4876821;29;20116;-79
2024/01/30 07:23:38;;;;;;;41.13;38.17;;;9.70;99.90;;;;;;4860899;29;20543;-79
2024/01/30 07:26:06;;;;;;;40.55;37.92;;;9.80;99.90;;;;;;4875901;29;20403;-80
2024/01/30 07:28:33;;;;;;;39.78;37.08;;;9.60;99.90;;;;;;4878891;29;20415;-78
2024/01/30 07:31:02;;;;;;;39.65;36.97;;;9.80;99.90;;;;;;4878900;29;20029;-80
2024/01/30 07:33:31;;;;;;;39.88;37.17;;;9.90;99.90;;;;;;4898482;29;20037;-80
2024/01/30 07:35:58;;;;;;;40.33;37.65;;;9.80;99.90;;;;;;4900519;29;20025;-79
2024/01/30 07:38:25;;;;;;;39.60;37.15;;;10.00;99.90;;;;;;4863592;29;20043;-80
2024/01/30 07:40:51;;;;;;;39.58;36.88;;;9.90;99.90;;;;;;4863443;29;20047;-80
2024/01/30 07:43:19;;;;;;;38.42;35.92;;;10.10;99.90;;;;;;4881055;29;20033;-80
2024/01/30 07:45:46;;;;;;;38.63;36.13;;;10.10;99.90;;;;;;4899833;29;20045;-79
2024/01/30 07:48:13;;;;;;;38.08;35.47;;;10.00;99.90;;;;;;4879736;29;20017;-80
2024/01/30 07:50:40;;;;;;;38.63;35.78;;;10.20;99.90;;;;;;4878858;29;20033;-79
2024/01/30 07:53:07;;;;;;;38.17;35.55;;;10.10;99.90;;;;;;4878307;29;20029;-80
2024/01/30 07:55:33;;;;;;;37.47;35.00;;;10.00;99.90;;;;;;4893497;29;20035;-80
2024/01/30 07:58:00;;;;;;;38.38;35.88;;;10.10;99.90;;;;;;4893199;29;20369;-79
2024/01/30 08:00:28;;;;;;;38.03;35.70;;;10.10;99.90;;;;;;4876068;29;20037;-79
2024/01/30 08:02:55;;;;;;;38.58;36.08;;;9.90;99.90;;;;;;4894176;29;20033;-79
2024/01/30 08:05:23;;;;;;;38.67;36.22;;;10.00;99.90;;;;;;4893500;29;20547;-79
2024/01/30 08:07:50;;;;;;;39.20;36.80;;;10.30;99.90;;;;;;4877333;29;20105;-79
2024/01/30 08:10:20;;;;;;;39.10;36.70;;;10.40;99.90;;;;;;4893600;29;20037;-79
2024/01/30 08:12:47;;;;;;;39.85;37.15;;;10.30;99.90;;;;;;4877963;29;20033;-78
2024/01/30 08:15:13;;;;;;;39.65;37.22;;;10.30;99.90;;;;;;4910793;29;20035;-79
2024/01/30 08:17:40;;;;;;;39.97;37.25;;;10.30;99.90;;;;;;4889519;29;20029;-78
2024/01/30 08:20:08;;;;;;;38.75;36.33;;;10.30;99.90;;;;;;4888277;29;20020;-79
2024/01/30 08:22:34;;;;;;;39.47;36.97;;;10.20;99.90;;;;;;4899634;29;20468;-78
2024/01/30 08:25:01;;;;;;;39.08;36.58;;;10.10;99.90;;;;;;4886368;29;20534;-79
2024/01/30 08:27:28;;;;;;;39.95;37.05;;;10.20;99.90;;;;;;4878756;29;20104;-79
2024/01/30 08:30:07;;;;;;;38.70;36.20;;;10.30;99.90;;;;;;4877962;29;20126;-79
2024/01/30 08:32:33;;;;;;;39.20;36.60;;;10.10;99.90;;;;;;4878352;29;20017;-79
2024/01/30 08:35:03;;;;;;;38.72;36.33;;;10.30;99.90;;;;;;4908342;29;20029;-79
2024/01/30 08:37:30;;;;;;;39.63;35.88;;;10.20;99.90;;;;;;4909290;29;20030;-79
2024/01/30 08:39:56;;;;;;;38.63;36.13;;;10.30;99.90;;;;;;4893768;29;20033;-79
2024/01/30 08:42:23;;;;;;;39.28;36.58;;;10.50;99.90;;;;;;4891995;29;20162;-79
2024/01/30 08:44:51;;;;;;;40.65;37.40;;;10.50;99.90;;;;;;4885093;29;20041;-79
2024/01/30 08:47:18;;;;;;;39.63;37.22;;;10.30;99.90;;;;;;4877655;29;20030;-78
2024/01/30 08:49:45;;;;;;;39.53;37.00;;;10.30;99.90;;;;;;4879456;29;20021;-80
2024/01/30 08:52:11;;;;;;;38.92;36.40;;;10.10;99.90;;;;;;4878385;29;20116;-80
2024/01/30 08:54:37;;;;;;;38.38;35.63;;;10.00;99.90;;;;;;4888945;29;20512;-77
2024/01/30 08:57:07;;;;;;;38.88;36.08;;;10.10;99.90;;;;;;4894167;29;20047;-79
2024/01/30 08:59:33;;;;;;;39.55;36.70;;;10.20;99.90;;;;;;4843343;29;20452;-79
2024/01/30 09:02:00;;;;;;;39.45;36.58;;;10.20;99.90;;;;;;4849304;29;20034;-79
2024/01/30 09:04:26;;;;;;;39.35;36.65;;;10.00;99.90;;;;;;4845588;29;20101;-79
2024/01/30 09:06:52;;;;;;;39.20;36.65;;;10.10;99.90;;;;;;4836617;29;20035;-79
2024/01/30 09:09:19;;;;;;;40.03;37.35;;;10.00;99.90;;;;;;4843158;29;20062;-80
2024/01/30 09:11:48;;;;;;;40.97;38.42;;;10.20;99.90;;;;;;4840507;29;20030;-80
2024/01/30 09:14:16;;;;;;;41.38;38.72;;;10.10;99.90;;;;;;4851342;29;20131;-79
2024/01/30 09:16:55;;;;;;;40.72;38.13;;;10.10;99.90;;;;;;4853497;29;20041;-79
